createdAt,value
2019-02-11T00:02:03.902Z,6.00
2019-02-11T00:04:33.294Z,6.00
2019-02-11T00:07:03.047Z,6.00
2019-02-11T00:09:32.564Z,6.00
2019-02-11T00:12:02.901Z,6.10
2019-02-11T00:14:32.278Z,6.10
2019-02-11T00:17:03.530Z,6.10
2019-02-11T00:19:32.913Z,6.20
2019-02-11T00:22:03.082Z,6.20
2019-02-11T00:24:32.536Z,6.20
2019-02-11T00:27:03.592Z,6.30
2019-02-11T00:29:32.911Z,6.40
2019-02-11T00:32:03.030Z,6.40
2019-02-11T00:34:32.416Z,6.40
2019-02-11T00:37:03.043Z,6.50
2019-02-11T00:39:32.348Z,6.60
2019-02-11T00:42:03.289Z,6.60
2019-02-11T00:44:32.623Z,6.70
2019-02-11T00:47:02.506Z,6.80
2019-02-11T00:49:31.818Z,6.90
2019-02-11T00:52:02.956Z,6.90
2019-02-11T00:54:32.282Z,6.90
2019-02-11T00:57:02.880Z,6.90
2019-02-11T00:59:32.422Z,6.90
2019-02-11T01:02:03.450Z,6.90
2019-02-11T01:04:32.790Z,6.80
2019-02-11T01:07:02.640Z,6.80
2019-02-11T01:09:31.954Z,6.90
2019-02-11T01:12:02.900Z,6.80
2019-02-11T01:14:32.206Z,6.80
2019-02-11T01:17:03.282Z,6.70
2019-02-11T01:19:32.583Z,6.70
2019-02-11T01:22:02.952Z,6.80
2019-02-11T01:24:32.266Z,6.70
2019-02-11T01:27:03.602Z,6.70
2019-02-11T01:29:33.320Z,6.70
2019-02-11T01:32:02.802Z,6.70
2019-02-11T01:34:32.101Z,6.70
2019-02-11T01:37:03.055Z,6.80
2019-02-11T01:39:32.354Z,6.80
2019-02-11T01:42:03.508Z,6.90
2019-02-11T01:44:32.890Z,7.00
2019-02-11T01:47:03.126Z,7.00
2019-02-11T01:49:32.505Z,7.00
2019-02-11T01:52:04.018Z,7.00
2019-02-11T01:54:33.334Z,6.90
2019-02-11T01:57:03.458Z,6.90
2019-02-11T01:59:32.786Z,6.90
2019-02-11T02:02:03.222Z,6.90
2019-02-11T02:04:32.546Z,6.90
2019-02-11T02:07:03.146Z,6.90
2019-02-11T02:09:32.455Z,6.90
2019-02-11T02:12:03.085Z,6.80
2019-02-11T02:14:32.384Z,6.80
2019-02-11T02:17:03.538Z,6.70
2019-02-11T02:19:32.850Z,6.70
2019-02-11T02:22:03.353Z,6.70
2019-02-11T02:24:32.733Z,6.70
2019-02-11T02:27:02.986Z,6.80
2019-02-11T02:29:32.294Z,6.90
2019-02-11T02:32:02.814Z,6.80
2019-02-11T02:34:32.131Z,6.80
2019-02-11T02:37:02.947Z,7.00
2019-02-11T02:39:32.268Z,7.00
2019-02-11T02:42:02.782Z,7.00
2019-02-11T02:44:32.138Z,6.90
2019-02-11T02:47:03.025Z,7.00
2019-02-11T02:49:32.318Z,7.10
2019-02-11T02:52:02.934Z,7.00
2019-02-11T02:54:32.307Z,6.90
2019-02-11T02:57:03.506Z,6.90
2019-02-11T02:59:32.922Z,7.00
2019-02-11T03:02:02.918Z,7.00
2019-02-11T03:04:32.234Z,7.00
2019-02-11T03:07:03.573Z,7.00
2019-02-11T03:09:32.995Z,7.00
2019-02-11T03:12:04.017Z,7.00
2019-02-11T03:14:33.391Z,7.10
2019-02-11T03:17:03.509Z,7.20
2019-02-11T03:19:32.846Z,7.20
2019-02-11T03:22:03.466Z,7.10
2019-02-11T03:24:32.787Z,7.10
2019-02-11T03:27:03.301Z,7.10
2019-02-11T03:29:32.693Z,7.20
2019-02-11T03:32:02.919Z,7.20
2019-02-11T03:34:32.312Z,7.20
2019-02-11T03:37:03.166Z,7.20
2019-02-11T03:39:32.549Z,7.20
2019-02-11T03:42:02.793Z,7.30
2019-02-11T03:44:32.122Z,7.30
2019-02-11T03:47:03.033Z,7.30
2019-02-11T03:49:32.422Z,7.30
2019-02-11T03:52:03.471Z,7.30
2019-02-11T03:54:32.862Z,7.30
2019-02-11T03:57:03.099Z,7.30
2019-02-11T03:59:32.407Z,7.30
2019-02-11T04:02:03.334Z,7.30
2019-02-11T04:04:32.647Z,7.30
2019-02-11T04:07:03.566Z,7.30
2019-02-11T04:09:32.871Z,7.20
2019-02-11T04:12:03.004Z,7.20
2019-02-11T04:14:32.403Z,7.10
2019-02-11T04:17:03.453Z,7.10
2019-02-11T04:19:32.823Z,7.10
2019-02-11T04:22:09.245Z,7.10
2019-02-11T04:24:38.557Z,7.10
2019-02-11T04:27:07.946Z,7.10
2019-02-11T04:29:37.277Z,7.10
2019-02-11T04:32:06.662Z,7.00
2019-02-11T04:34:36.066Z,7.00
2019-02-11T04:37:05.417Z,7.00
2019-02-11T04:39:34.735Z,7.00
2019-02-11T04:42:04.150Z,7.00
2019-02-11T04:44:34.224Z,7.00
2019-02-11T04:47:03.826Z,7.00
2019-02-11T04:49:33.217Z,7.00
2019-02-11T04:52:03.067Z,6.90
2019-02-11T04:54:32.469Z,6.90
2019-02-11T04:57:02.814Z,6.80
2019-02-11T04:59:32.189Z,6.80
2019-02-11T05:02:02.821Z,6.70
2019-02-11T05:04:32.130Z,6.70
2019-02-11T05:07:03.491Z,6.80
2019-02-11T05:09:32.873Z,6.80
2019-02-11T05:12:02.900Z,6.80
2019-02-11T05:14:32.210Z,6.80
2019-02-11T05:17:03.335Z,6.80
2019-02-11T05:19:32.739Z,6.70
2019-02-11T05:22:03.573Z,6.60
2019-02-11T05:24:32.879Z,6.60
2019-02-11T05:27:03.006Z,6.60
2019-02-11T05:29:32.382Z,6.60
2019-02-11T05:32:03.047Z,6.60
2019-02-11T05:34:32.450Z,6.60
2019-02-11T05:37:03.482Z,6.60
2019-02-11T05:39:32.770Z,6.60
2019-02-11T05:42:02.114Z,6.70
2019-02-11T05:44:31.559Z,6.60
2019-02-11T05:47:00.949Z,6.60
2019-02-11T05:49:30.421Z,6.50
2019-02-11T05:51:59.758Z,6.50
2019-02-11T05:54:29.210Z,6.50
2019-02-11T05:56:58.627Z,6.50
2019-02-11T05:59:28.102Z,6.50
2019-02-11T06:01:57.426Z,6.50
2019-02-11T06:04:26.815Z,6.50
2019-02-11T06:06:56.149Z,6.50
2019-02-11T06:09:25.612Z,6.50
2019-02-11T06:11:55.034Z,6.50
2019-02-11T06:14:24.402Z,6.50
2019-02-11T06:16:53.718Z,6.40
2019-02-11T06:19:23.090Z,6.40
2019-02-11T06:21:52.454Z,6.40
2019-02-11T06:24:21.957Z,6.40
2019-02-11T06:26:51.327Z,6.30
2019-02-11T06:29:20.790Z,6.30
2019-02-11T06:31:50.222Z,6.30
2019-02-11T06:34:19.697Z,6.30
2019-02-11T06:36:49.082Z,6.30
2019-02-11T06:39:18.558Z,6.30
2019-02-11T06:41:47.925Z,6.30
2019-02-11T06:44:17.314Z,6.30
2019-02-11T06:46:46.712Z,6.30
2019-02-11T06:49:16.163Z,6.40
2019-02-11T06:51:45.601Z,6.40
2019-02-11T06:54:15.054Z,6.40
2019-02-11T06:56:44.447Z,6.40
2019-02-11T06:59:13.833Z,6.40
2019-02-11T07:01:43.236Z,6.40
2019-02-11T07:04:12.633Z,6.40
2019-02-11T07:06:42.051Z,6.40
2019-02-11T07:09:11.569Z,6.40
2019-02-11T07:11:40.992Z,6.40
2019-02-11T07:14:10.547Z,6.40
2019-02-11T07:16:39.989Z,6.50
2019-02-11T07:19:09.526Z,6.40
2019-02-11T07:21:40.161Z,6.40
2019-02-11T07:24:09.650Z,6.40
2019-02-11T07:26:39.076Z,6.40
2019-02-11T07:29:08.597Z,6.40
2019-02-11T07:31:37.920Z,6.40
2019-02-11T07:34:07.380Z,6.40
2019-02-11T07:36:36.826Z,6.50
2019-02-11T07:39:09.587Z,6.50
2019-02-11T07:41:44.743Z,6.50
2019-02-11T07:44:24.746Z,6.50
2019-02-11T07:46:57.592Z,6.50
2019-02-11T07:49:27.082Z,6.60
2019-02-11T07:51:56.490Z,6.60
2019-02-11T07:54:25.953Z,6.60
2019-02-11T07:56:55.342Z,6.60
2019-02-11T07:59:24.818Z,6.70
2019-02-11T08:01:54.238Z,6.70
2019-02-11T08:04:23.673Z,6.60
2019-02-11T08:06:52.994Z,6.70
2019-02-11T08:09:22.422Z,6.70
2019-02-11T08:11:51.742Z,6.70
2019-02-11T08:14:21.126Z,6.70
2019-02-11T08:16:50.482Z,6.60
2019-02-11T08:19:19.910Z,6.60
2019-02-11T08:21:49.239Z,6.70
2019-02-11T08:24:18.609Z,6.70
2019-02-11T08:26:47.966Z,6.70
2019-02-11T08:29:17.381Z,6.70
2019-02-11T08:31:46.717Z,6.80
2019-02-11T08:34:16.134Z,6.80
2019-02-11T08:36:45.558Z,6.80
2019-02-11T08:39:14.913Z,6.80
2019-02-11T08:41:45.595Z,6.80
2019-02-11T08:44:15.147Z,6.90
2019-02-11T08:46:44.561Z,6.90
2019-02-11T08:49:13.941Z,6.90
2019-02-11T08:51:43.318Z,6.90
2019-02-11T08:54:12.694Z,7.00
2019-02-11T08:56:42.135Z,7.00
2019-02-11T08:59:11.520Z,7.00
2019-02-11T09:01:40.941Z,7.00
2019-02-11T09:04:18.654Z,7.00
2019-02-11T09:06:41.376Z,7.00
2019-02-11T09:09:10.840Z,7.00
2019-02-11T09:11:40.213Z,7.00
2019-02-11T09:14:09.577Z,7.00
2019-02-11T09:16:38.912Z,7.10
2019-02-11T09:19:08.469Z,7.10
2019-02-11T09:21:37.810Z,7.10
2019-02-11T09:24:07.185Z,7.20
2019-02-11T09:26:36.588Z,7.20
2019-02-11T09:29:06.052Z,7.10
2019-02-11T09:31:35.390Z,7.20
2019-02-11T09:34:04.841Z,7.10
2019-02-11T09:36:34.166Z,7.20
2019-02-11T09:39:04.877Z,7.10
2019-02-11T09:41:34.210Z,7.10
2019-02-11T09:44:03.601Z,7.20
2019-02-11T09:46:32.970Z,7.20
2019-02-11T09:49:03.994Z,7.20
2019-02-11T09:51:35.246Z,7.30
2019-02-11T09:54:04.934Z,7.30
2019-02-11T09:56:34.363Z,7.30
2019-02-11T09:59:03.795Z,7.40
2019-02-11T10:01:33.106Z,7.40
2019-02-11T10:04:06.963Z,7.30
2019-02-11T10:06:36.395Z,7.40
2019-02-11T10:09:06.272Z,7.40
2019-02-11T10:11:35.667Z,7.40
2019-02-11T10:14:05.125Z,7.40
2019-02-11T10:16:34.461Z,7.40
2019-02-11T10:19:03.826Z,7.40
2019-02-11T10:21:33.934Z,7.40
2019-02-11T10:24:04.201Z,7.50
2019-02-11T10:26:33.558Z,7.50
2019-02-11T10:29:03.043Z,7.60
2019-02-11T10:31:32.463Z,7.60
2019-02-11T10:34:03.477Z,7.70
2019-02-11T10:36:32.818Z,7.60
2019-02-11T10:39:05.499Z,7.70
2019-02-11T10:41:34.837Z,7.60
2019-02-11T10:44:04.350Z,7.50
2019-02-11T10:46:33.689Z,7.50
2019-02-11T10:49:03.053Z,7.50
2019-02-11T10:51:32.417Z,7.40
2019-02-11T10:54:02.385Z,7.40
2019-02-11T10:56:31.702Z,7.50
2019-02-11T10:59:02.421Z,7.50
2019-02-11T11:01:31.842Z,7.40
2019-02-11T11:04:02.305Z,7.50
2019-02-11T11:06:31.736Z,7.40
2019-02-11T11:09:02.297Z,7.40
2019-02-11T11:11:31.710Z,7.40
2019-02-11T11:14:02.813Z,7.40
2019-02-11T11:16:32.314Z,7.50
2019-02-11T11:19:02.986Z,7.60
2019-02-11T11:21:32.751Z,7.70
2019-02-11T11:24:02.328Z,7.80
2019-02-11T11:26:31.741Z,7.80
2019-02-11T11:29:01.125Z,7.80
2019-02-11T11:31:30.471Z,7.80
2019-02-11T11:33:59.879Z,7.70
2019-02-11T11:36:29.282Z,7.80
2019-02-11T11:38:58.629Z,7.70
2019-02-11T11:41:28.130Z,7.70
2019-02-11T11:43:57.533Z,7.50
2019-02-11T11:46:26.885Z,7.50
2019-02-11T11:48:56.190Z,7.40
2019-02-11T11:51:25.663Z,7.40
2019-02-11T11:53:55.045Z,7.50
2019-02-11T11:56:24.450Z,7.50
2019-02-11T11:58:53.922Z,7.50
2019-02-11T12:01:23.360Z,7.60
2019-02-11T12:03:52.758Z,7.70
2019-02-11T12:06:25.315Z,7.80
2019-02-11T12:08:53.246Z,7.90
2019-02-11T12:11:22.692Z,7.90
2019-02-11T12:13:52.082Z,7.90
2019-02-11T12:16:21.508Z,8.00
2019-02-11T12:18:50.934Z,8.10
2019-02-11T12:21:20.435Z,8.10
2019-02-11T12:23:49.831Z,8.20
2019-02-11T12:26:21.570Z,8.10
2019-02-11T12:28:50.374Z,8.10
2019-02-11T12:31:19.830Z,8.10
2019-02-11T12:33:49.229Z,7.90
2019-02-11T12:36:18.643Z,7.90
2019-02-11T12:38:48.050Z,7.90
2019-02-11T12:41:17.544Z,7.80
2019-02-11T12:43:46.958Z,7.90
2019-02-11T12:46:16.326Z,8.00
2019-02-11T12:48:45.727Z,8.00
2019-02-11T12:51:15.189Z,8.10
2019-02-11T12:53:44.585Z,8.20
2019-02-11T12:56:14.052Z,8.30
2019-02-11T12:58:43.442Z,8.30
2019-02-11T13:01:12.922Z,8.30
2019-02-11T13:03:42.563Z,8.30
2019-02-11T13:06:12.005Z,8.50
2019-02-11T13:08:41.417Z,8.40
2019-02-11T13:11:10.876Z,8.50
2019-02-11T13:13:40.270Z,8.40
2019-02-11T13:16:09.701Z,8.50
2019-02-11T13:18:40.019Z,8.50
2019-02-11T13:21:09.624Z,8.40
2019-02-11T13:23:39.058Z,8.40
2019-02-11T13:26:08.485Z,8.20
2019-02-11T13:28:37.857Z,8.10
2019-02-11T13:31:07.335Z,7.60
2019-02-11T13:33:36.946Z,7.40
2019-02-11T13:36:06.382Z,7.00
2019-02-11T13:38:35.826Z,6.70
2019-02-11T13:41:05.311Z,6.60
2019-02-11T13:43:34.701Z,6.50
2019-02-11T13:46:04.355Z,6.40
2019-02-11T13:48:34.663Z,6.40
2019-02-11T13:51:04.482Z,6.40
2019-02-11T13:53:33.943Z,6.30
2019-02-11T13:56:05.460Z,6.30
2019-02-11T13:58:34.981Z,6.20
2019-02-11T14:01:06.712Z,6.20
2019-02-11T14:03:36.223Z,6.20
2019-02-11T14:06:06.145Z,6.20
2019-02-11T14:08:35.556Z,6.20
2019-02-11T14:11:04.977Z,6.20
2019-02-11T14:13:34.431Z,6.30
2019-02-11T14:16:03.887Z,6.40
2019-02-11T14:18:35.263Z,6.50
2019-02-11T14:21:04.989Z,6.70
2019-02-11T14:23:34.381Z,6.80
2019-02-11T14:26:03.805Z,7.00
2019-02-11T14:28:33.231Z,7.10
2019-02-11T14:31:02.877Z,7.10
2019-02-11T14:33:32.300Z,7.10
2019-02-11T14:36:05.467Z,7.20
2019-02-11T14:38:33.937Z,7.20
2019-02-11T14:41:03.401Z,7.10
2019-02-11T14:43:32.813Z,7.10
2019-02-11T14:46:02.725Z,7.00
2019-02-11T14:48:32.112Z,7.00
2019-02-11T14:51:02.477Z,6.90
2019-02-11T14:53:31.789Z,6.90
2019-02-11T14:56:02.513Z,7.00
2019-02-11T14:58:31.901Z,7.00
2019-02-11T15:01:02.558Z,7.00
2019-02-11T15:03:31.963Z,7.00
2019-02-11T15:06:02.387Z,7.00
2019-02-11T15:08:31.772Z,6.90
2019-02-11T15:11:03.038Z,6.80
2019-02-11T15:13:32.422Z,6.60
2019-02-11T15:16:04.091Z,6.50
2019-02-11T15:18:34.530Z,6.40
2019-02-11T15:21:04.046Z,6.40
2019-02-11T15:23:33.450Z,6.40
2019-02-11T15:26:03.718Z,6.40
2019-02-11T15:28:33.146Z,6.30
2019-02-11T15:31:02.855Z,6.20
2019-02-11T15:33:32.186Z,6.20
2019-02-11T15:36:02.997Z,6.20
2019-02-11T15:38:32.294Z,6.20
2019-02-11T15:41:01.783Z,6.10
2019-02-11T15:43:31.156Z,6.00
2019-02-11T15:46:00.533Z,5.90
2019-02-11T15:48:29.881Z,5.90
2019-02-11T15:50:59.397Z,5.90
2019-02-11T15:53:28.710Z,5.80
2019-02-11T15:55:58.072Z,5.70
2019-02-11T15:58:27.499Z,5.70
2019-02-11T16:00:56.901Z,5.60
2019-02-11T16:03:26.289Z,5.60
2019-02-11T16:05:55.831Z,5.60
2019-02-11T16:08:25.260Z,5.50
2019-02-11T16:11:01.208Z,5.60
2019-02-11T16:13:25.654Z,5.60
2019-02-11T16:15:54.991Z,5.60
2019-02-11T16:18:24.364Z,5.60
2019-02-11T16:20:53.797Z,5.60
2019-02-11T16:23:23.198Z,5.60
2019-02-11T16:25:52.595Z,5.60
2019-02-11T16:28:21.930Z,5.70
2019-02-11T16:30:51.315Z,5.70
2019-02-11T16:33:20.647Z,5.70
2019-02-11T16:35:50.001Z,5.60
2019-02-11T16:38:19.385Z,5.60
2019-02-11T16:40:48.746Z,5.60
2019-02-11T16:43:18.062Z,5.60
2019-02-11T16:45:47.415Z,5.60
2019-02-11T16:48:16.729Z,5.60
2019-02-11T16:50:46.074Z,5.60
2019-02-11T16:53:15.381Z,5.60
2019-02-11T16:55:44.829Z,5.60
2019-02-11T16:58:14.259Z,5.50
2019-02-11T17:00:43.661Z,5.50
2019-02-11T17:03:13.010Z,5.50
2019-02-11T17:05:42.425Z,5.50
2019-02-11T17:08:11.906Z,5.50
2019-02-11T17:10:41.478Z,5.60
2019-02-11T17:13:11.081Z,5.60
2019-02-11T17:15:40.405Z,5.50
2019-02-11T17:18:09.841Z,5.60
2019-02-11T17:20:39.221Z,5.60
2019-02-11T17:23:08.565Z,5.60
2019-02-11T17:25:37.873Z,5.60
2019-02-11T17:28:07.238Z,5.60
2019-02-11T17:30:36.686Z,5.60
2019-02-11T17:33:06.177Z,5.60
2019-02-11T17:35:35.552Z,5.60
2019-02-11T17:38:04.934Z,5.60
2019-02-11T17:40:34.353Z,5.60
2019-02-11T17:43:03.782Z,5.60
2019-02-11T17:45:33.294Z,5.50
2019-02-11T17:48:02.875Z,5.50
2019-02-11T17:50:32.277Z,5.50
2019-02-11T17:53:03.593Z,5.50
2019-02-11T17:55:32.894Z,5.40
2019-02-11T17:58:02.962Z,5.40
2019-02-11T18:00:37.518Z,5.40
2019-02-11T18:03:06.869Z,5.30
2019-02-11T18:05:36.197Z,5.30
2019-02-11T18:08:05.569Z,5.30
2019-02-11T18:10:34.887Z,5.30
2019-02-11T18:13:04.294Z,5.30
2019-02-11T18:15:33.685Z,5.40
2019-02-11T18:18:04.630Z,5.40
2019-02-11T18:20:34.022Z,5.40
2019-02-11T18:23:03.392Z,5.40
2019-02-11T18:25:32.719Z,5.40
2019-02-11T18:28:03.339Z,5.40
2019-02-11T18:30:32.791Z,5.40
2019-02-11T18:33:03.083Z,5.30
2019-02-11T18:35:32.410Z,5.30
2019-02-11T18:38:02.317Z,5.30
2019-02-11T18:40:31.706Z,5.30
2019-02-11T18:43:03.567Z,5.30
2019-02-11T18:45:32.975Z,5.30
2019-02-11T18:48:02.425Z,5.30
2019-02-11T18:50:31.770Z,5.30
2019-02-11T18:53:03.262Z,5.30
2019-02-11T18:55:32.942Z,5.30
2019-02-11T18:58:03.265Z,5.30
2019-02-11T19:00:32.630Z,5.20
2019-02-11T19:03:03.508Z,5.20
2019-02-11T19:05:32.906Z,5.20
2019-02-11T19:08:03.029Z,5.10
2019-02-11T19:10:32.354Z,5.20
2019-02-11T19:13:03.053Z,5.10
2019-02-11T19:15:32.389Z,5.10
2019-02-11T19:18:04.018Z,5.10
2019-02-11T19:20:33.423Z,5.10
2019-02-11T19:23:06.117Z,5.10
2019-02-11T19:25:35.510Z,5.10
2019-02-11T19:28:04.955Z,5.10
2019-02-11T19:30:34.267Z,5.10
2019-02-11T19:33:03.659Z,5.10
2019-02-11T19:35:33.046Z,5.10
2019-02-11T19:38:03.538Z,5.10
2019-02-11T19:40:32.885Z,5.00
2019-02-11T19:43:03.571Z,5.00
2019-02-11T19:45:33.012Z,5.00
2019-02-11T19:48:02.988Z,4.90
2019-02-11T19:50:32.437Z,4.90
2019-02-11T19:53:03.369Z,4.90
2019-02-11T19:55:32.716Z,4.90
2019-02-11T19:58:02.837Z,4.80
2019-02-11T20:00:32.171Z,4.80
2019-02-11T20:03:03.250Z,4.80
2019-02-11T20:05:32.686Z,4.80
2019-02-11T20:08:02.106Z,4.70
2019-02-11T20:10:31.553Z,4.60
2019-02-11T20:13:03.395Z,4.60
2019-02-11T20:15:32.910Z,4.60
2019-02-11T20:18:02.311Z,4.60
2019-02-11T20:20:31.746Z,4.60
2019-02-11T20:23:01.066Z,4.60
2019-02-11T20:25:30.513Z,4.50
2019-02-11T20:27:59.853Z,4.50
2019-02-11T20:30:29.250Z,4.50
2019-02-11T20:32:58.710Z,4.50
2019-02-11T20:35:28.150Z,4.50
2019-02-11T20:37:58.928Z,4.40
2019-02-11T20:40:28.750Z,4.50
2019-02-11T20:42:58.171Z,4.50
2019-02-11T20:45:27.954Z,4.40
2019-02-11T20:47:57.301Z,4.40
2019-02-11T20:50:26.673Z,4.40
2019-02-11T20:52:56.148Z,4.40
2019-02-11T20:55:25.530Z,4.40
2019-02-11T20:57:56.419Z,4.30
2019-02-11T21:00:25.944Z,4.30
2019-02-11T21:02:55.287Z,4.30
2019-02-11T21:05:24.790Z,4.30
2019-02-11T21:07:54.195Z,4.30
2019-02-11T21:10:23.717Z,4.40
2019-02-11T21:12:53.041Z,4.40
2019-02-11T21:15:22.501Z,4.40
2019-02-11T21:17:51.817Z,4.40
2019-02-11T21:20:24.458Z,4.40
2019-02-11T21:22:53.866Z,4.40
2019-02-11T21:25:23.280Z,4.40
2019-02-11T21:27:52.695Z,4.40
2019-02-11T21:30:22.281Z,4.40
2019-02-11T21:32:51.645Z,4.40
2019-02-11T21:35:20.991Z,4.40
2019-02-11T21:37:50.409Z,4.40
2019-02-11T21:40:19.871Z,4.40
2019-02-11T21:42:49.198Z,4.40
2019-02-11T21:45:18.717Z,4.40
2019-02-11T21:47:48.115Z,4.40
2019-02-11T21:50:26.064Z,4.40
2019-02-11T21:52:48.676Z,4.40
2019-02-11T21:55:18.201Z,4.40
2019-02-11T21:57:47.538Z,4.40
2019-02-11T22:00:18.437Z,4.40
2019-02-11T22:02:47.794Z,4.40
2019-02-11T22:05:17.233Z,4.40
2019-02-11T22:07:46.610Z,4.40
2019-02-11T22:10:17.034Z,4.40
2019-02-11T22:12:46.400Z,4.40
2019-02-11T22:15:15.965Z,4.40
2019-02-11T22:17:45.421Z,4.30
2019-02-11T22:20:16.485Z,4.40
2019-02-11T22:22:45.926Z,4.40
2019-02-11T22:25:15.353Z,4.40
2019-02-11T22:27:44.775Z,4.40
2019-02-11T22:30:16.234Z,4.50
2019-02-11T22:32:45.666Z,4.50
2019-02-11T22:35:15.057Z,4.50
2019-02-11T22:37:44.730Z,4.50
2019-02-11T22:40:14.489Z,4.50
2019-02-11T22:42:43.916Z,4.50
2019-02-11T22:45:15.844Z,4.40
2019-02-11T22:47:45.298Z,4.40
2019-02-11T22:50:15.045Z,4.30
2019-02-11T22:52:44.427Z,4.30
2019-02-11T22:55:13.801Z,4.30
2019-02-11T22:57:43.129Z,4.30
2019-02-11T23:01:04.928Z,4.20
2019-02-11T23:03:36.087Z,4.20
2019-02-11T23:06:05.770Z,4.10
2019-02-11T23:08:35.116Z,4.00
2019-02-11T23:11:04.636Z,4.00
2019-02-11T23:13:33.988Z,4.00
2019-02-11T23:16:03.464Z,4.00
2019-02-11T23:18:32.880Z,4.00
2019-02-11T23:21:02.346Z,4.00
2019-02-11T23:23:31.742Z,3.90
2019-02-11T23:26:03.817Z,3.90
2019-02-11T23:28:33.145Z,3.90
2019-02-11T23:31:02.785Z,3.90
2019-02-11T23:33:32.230Z,3.90
2019-02-11T23:36:03.061Z,3.90
2019-02-11T23:38:32.513Z,3.80
2019-02-11T23:41:03.690Z,3.80
2019-02-11T23:43:33.378Z,3.80
2019-02-11T23:46:02.967Z,3.80
2019-02-11T23:48:32.365Z,3.80
2019-02-11T23:51:03.133Z,3.80
2019-02-11T23:53:32.555Z,3.80
2019-02-11T23:56:02.855Z,3.90
2019-02-11T23:58:32.263Z,3.90
